This is the latest recevied weather packets stored in our database for station/object SV9TNF-51. If no packets are shown the sender has not sent any weather packets the latest 10 day(s).
| Time | Temp. | Humidity | Pressure | Rain* | Wind** | Luminosity | Snow |
|---|---|---|---|---|---|---|---|
| 1788187971 | 34.44° C | 41% | 1011.5 hPa | 0 mm | 1.79 m/s, 126° | - | - |
| 1788187671 | 33.89° C | 44% | 1011.5 hPa | 0 mm | 1.79 m/s, 132° | - | - |
| 1788187371 | 33.89° C | 43% | 1011.5 hPa | 0 mm | 1.79 m/s, 137° | - | - |
| 1788187071 | 34.44° C | 42% | 1011.5 hPa | 0 mm | 2.24 m/s, 119° | - | - |
| 1788186770 | 34.44° C | 40% | 1011.5 hPa | 0 mm | 2.68 m/s, 17° | - | - |
| 1788186470 | 33.89° C | 42% | 1011.5 hPa | 0 mm | 0.89 m/s, 147° | - | - |
| 1788186170 | 32.78° C | 42% | 1011.5 hPa | 0 mm | 6.26 m/s, 144° | - | - |
| 1788185870 | 33.33° C | 44% | 1011.5 hPa | 0 mm | 3.13 m/s, 12° | - | - |
| 1788185570 | 33.33° C | 45% | 1011.5 hPa | 0 mm | 3.58 m/s, 137° | - | - |
| 1788185270 | 32.22° C | 48% | 1011.5 hPa | 0 mm | 8.94 m/s, 139° | - | - |
| 1788184970 | 32.78° C | 47% | 1011.5 hPa | 0 mm | 4.92 m/s, 333° | - | - |
| 1788184670 | 32.78° C | 46% | 1011.5 hPa | 0 mm | 4.92 m/s, 325° | - | - |
| 1788184370 | 33.33° C | 45% | 1011.5 hPa | 0 mm | 4.47 m/s, 122° | - | - |
| 1788184070 | 33.33° C | 45% | 1011.5 hPa | 0 mm | 4.02 m/s, 332° | - | - |
| 1788183769 | 32.78° C | 45% | 1011.5 hPa | 0 mm | 9.39 m/s, 22° | - | - |
| 1788183469 | 33.33° C | 43% | 1011.5 hPa | 0 mm | 1.79 m/s, 142° | - | - |
| 1788183169 | 33.33° C | 44% | 1011.5 hPa | 0 mm | 1.79 m/s, 146° | - | - |
| 1788182869 | 32.78° C | 44% | 1011.5 hPa | 0 mm | 4.92 m/s, 345° | - | - |
| 1788182569 | 33.33° C | 47% | 1011.5 hPa | 0 mm | 4.92 m/s, 91° | - | - |
| 1788182269 | 33.33° C | 46% | 1011.5 hPa | 0 mm | 5.81 m/s, 354° | - | - |
| 1788181969 | 33.89° C | 45% | 1011.5 hPa | 0 mm | 4.92 m/s, 134° | - | - |
| 1788181669 | 33.33° C | 46% | 1011.5 hPa | 0 mm | 7.6 m/s, 349° | - | - |
| 1788181368 | 34.44° C | 43% | 1011.5 hPa | 0 mm | 1.79 m/s, 84° | - | - |
| 1788181068 | 34.44° C | 43% | 1011.5 hPa | 0 mm | 1.79 m/s, 304° | - | - |
| 1788180769 | 35° C | 42% | 1011.5 hPa | 0 mm | 5.81 m/s, 278° | - | - |
* Rain latest hour (hover to see other rain measurements)
** Current wind speed in m/s (hover to see current wind gust speed)